Redcliff, Canada
Current Conditions -  °F | °C
As of 5:00 PM on Wednesday 26 Nov 2014 (Local Time) from CYXH Reporting Station
Light Snow Light Snow  
Wind Chill: 28°   Ceiling: 1300
Heat Index: 28°   Visibility: 3mi
Dew Point: 27°   Wind: 3mph
Humidity: 93%   Direction: 60°ENE
Pressure: 30.17"   Gusts: NA
Location:  50.08°N, 110.79°W
Report Text: CYXH 270000Z 06003KT 050V130 3SM -SN OVC013 M02/M03 A3017 RMK SC8 SLP251
Loading
Personal Weather Stations






























Interactive Weather Map New forecast layout! Learn more

10-Day Weather Forecast

Advertisements
Track Severe Weather on mobile